sensor_id;sensor_type;location;lat;lon;timestamp;P1;durP1;ratioP1;P2;durP2;ratioP2
13927;SDS011;7036;50.834;4.718;2022-11-15T00:02:10;3.72;;;3.35;;
13927;SDS011;7036;50.834;4.718;2022-11-15T00:04:38;3.50;;;3.20;;
13927;SDS011;7036;50.834;4.718;2022-11-15T00:07:06;3.28;;;2.75;;
13927;SDS011;7036;50.834;4.718;2022-11-15T00:09:34;3.45;;;3.13;;
13927;SDS011;7036;50.834;4.718;2022-11-15T00:12:02;3.42;;;3.13;;
13927;SDS011;7036;50.834;4.718;2022-11-15T00:14:30;4.47;;;3.42;;
13927;SDS011;7036;50.834;4.718;2022-11-15T00:16:58;3.92;;;3.63;;
13927;SDS011;7036;50.834;4.718;2022-11-15T00:19:26;3.50;;;3.20;;
13927;SDS011;7036;50.834;4.718;2022-11-15T00:21:53;4.17;;;3.70;;
13927;SDS011;7036;50.834;4.718;2022-11-15T00:24:22;4.85;;;3.50;;
13927;SDS011;7036;50.834;4.718;2022-11-15T00:26:48;3.40;;;3.10;;
13927;SDS011;7036;50.834;4.718;2022-11-15T00:29:15;3.30;;;3.00;;
13927;SDS011;7036;50.834;4.718;2022-11-15T00:31:43;4.30;;;3.17;;
13927;SDS011;7036;50.834;4.718;2022-11-15T00:34:10;3.40;;;3.10;;
13927;SDS011;7036;50.834;4.718;2022-11-15T00:36:39;3.30;;;3.00;;
13927;SDS011;7036;50.834;4.718;2022-11-15T00:39:07;3.70;;;2.93;;
13927;SDS011;7036;50.834;4.718;2022-11-15T00:41:33;3.67;;;3.17;;
13927;SDS011;7036;50.834;4.718;2022-11-15T00:44:00;4.35;;;3.40;;
13927;SDS011;7036;50.834;4.718;2022-11-15T00:46:28;3.90;;;3.47;;
13927;SDS011;7036;50.834;4.718;2022-11-15T00:48:56;3.55;;;3.25;;
13927;SDS011;7036;50.834;4.718;2022-11-15T00:51:24;3.63;;;3.33;;
13927;SDS011;7036;50.834;4.718;2022-11-15T00:53:52;4.22;;;3.17;;
13927;SDS011;7036;50.834;4.718;2022-11-15T00:56:19;5.47;;;3.10;;
13927;SDS011;7036;50.834;4.718;2022-11-15T00:58:47;3.88;;;3.10;;
13927;SDS011;7036;50.834;4.718;2022-11-15T01:01:14;3.22;;;2.85;;
13927;SDS011;7036;50.834;4.718;2022-11-15T01:03:41;3.70;;;3.40;;
13927;SDS011;7036;50.834;4.718;2022-11-15T01:06:09;2.92;;;2.70;;
13927;SDS011;7036;50.834;4.718;2022-11-15T01:08:37;3.10;;;2.90;;
13927;SDS011;7036;50.834;4.718;2022-11-15T01:11:06;3.15;;;2.88;;
13927;SDS011;7036;50.834;4.718;2022-11-15T01:13:34;3.43;;;3.13;;
13927;SDS011;7036;50.834;4.718;2022-11-15T01:16:06;2.92;;;2.72;;
13927;SDS011;7036;50.834;4.718;2022-11-15T01:18:31;2.93;;;2.73;;
13927;SDS011;7036;50.834;4.718;2022-11-15T01:20:59;3.33;;;3.00;;
13927;SDS011;7036;50.834;4.718;2022-11-15T01:23:27;4.15;;;3.30;;
13927;SDS011;7036;50.834;4.718;2022-11-15T01:25:59;3.22;;;3.03;;
13927;SDS011;7036;50.834;4.718;2022-11-15T01:28:25;3.93;;;2.87;;
13927;SDS011;7036;50.834;4.718;2022-11-15T01:30:53;3.00;;;2.70;;
13927;SDS011;7036;50.834;4.718;2022-11-15T01:33:20;3.53;;;3.22;;
13927;SDS011;7036;50.834;4.718;2022-11-15T01:35:48;3.63;;;2.80;;
13927;SDS011;7036;50.834;4.718;2022-11-15T01:38:17;2.97;;;2.67;;
13927;SDS011;7036;50.834;4.718;2022-11-15T01:40:43;3.80;;;3.20;;
13927;SDS011;7036;50.834;4.718;2022-11-15T01:43:22;5.15;;;3.13;;
13927;SDS011;7036;50.834;4.718;2022-11-15T01:45:56;3.27;;;2.77;;
13927;SDS011;7036;50.834;4.718;2022-11-15T01:48:31;3.20;;;2.90;;
13927;SDS011;7036;50.834;4.718;2022-11-15T01:50:56;4.18;;;3.17;;
13927;SDS011;7036;50.834;4.718;2022-11-15T01:53:25;3.88;;;3.58;;
13927;SDS011;7036;50.834;4.718;2022-11-15T01:55:52;3.30;;;3.00;;
13927;SDS011;7036;50.834;4.718;2022-11-15T01:58:20;3.25;;;2.83;;
13927;SDS011;7036;50.834;4.718;2022-11-15T02:00:48;3.17;;;2.88;;
13927;SDS011;7036;50.834;4.718;2022-11-15T02:03:15;4.03;;;3.53;;
13927;SDS011;7036;50.834;4.718;2022-11-15T02:05:43;3.47;;;2.72;;
13927;SDS011;7036;50.834;4.718;2022-11-15T02:08:11;2.88;;;2.65;;
13927;SDS011;7036;50.834;4.718;2022-11-15T02:10:39;3.53;;;3.08;;
13927;SDS011;7036;50.834;4.718;2022-11-15T02:13:06;3.92;;;2.60;;
13927;SDS011;7036;50.834;4.718;2022-11-15T02:15:36;3.97;;;3.20;;
13927;SDS011;7036;50.834;4.718;2022-11-15T02:18:06;3.55;;;2.80;;
13927;SDS011;7036;50.834;4.718;2022-11-15T02:20:39;3.35;;;3.00;;
13927;SDS011;7036;50.834;4.718;2022-11-15T02:26:24;3.30;;;3.00;;
13927;SDS011;7036;50.834;4.718;2022-11-15T02:28:55;2.47;;;2.27;;
13927;SDS011;7036;50.834;4.718;2022-11-15T02:34:05;3.80;;;3.37;;
13927;SDS011;7036;50.834;4.718;2022-11-15T02:39:11;3.42;;;2.92;;
13927;SDS011;7036;50.834;4.718;2022-11-15T02:41:41;2.90;;;2.70;;
13927;SDS011;7036;50.834;4.718;2022-11-15T02:44:14;3.33;;;3.03;;
13927;SDS011;7036;50.834;4.718;2022-11-15T02:49:29;3.10;;;2.80;;
13927;SDS011;7036;50.834;4.718;2022-11-15T02:51:56;3.78;;;2.92;;
13927;SDS011;7036;50.834;4.718;2022-11-15T02:54:25;2.78;;;2.53;;
13927;SDS011;7036;50.834;4.718;2022-11-15T02:56:53;3.10;;;2.63;;
13927;SDS011;7036;50.834;4.718;2022-11-15T03:07:14;2.83;;;2.63;;
13927;SDS011;7036;50.834;4.718;2022-11-15T03:09:42;3.57;;;2.90;;
13927;SDS011;7036;50.834;4.718;2022-11-15T03:12:16;2.83;;;2.63;;
13927;SDS011;7036;50.834;4.718;2022-11-15T03:14:43;5.70;;;2.73;;
13927;SDS011;7036;50.834;4.718;2022-11-15T03:17:12;3.20;;;2.90;;
13927;SDS011;7036;50.834;4.718;2022-11-15T03:19:40;2.87;;;2.67;;
13927;SDS011;7036;50.834;4.718;2022-11-15T03:22:07;4.03;;;2.93;;
13927;SDS011;7036;50.834;4.718;2022-11-15T03:24:35;3.30;;;3.00;;
13927;SDS011;7036;50.834;4.718;2022-11-15T03:27:02;4.28;;;3.00;;
13927;SDS011;7036;50.834;4.718;2022-11-15T03:29:31;3.10;;;2.40;;
13927;SDS011;7036;50.834;4.718;2022-11-15T03:31:58;3.53;;;3.00;;
13927;SDS011;7036;50.834;4.718;2022-11-15T03:34:32;3.45;;;2.90;;
13927;SDS011;7036;50.834;4.718;2022-11-15T03:37:11;3.53;;;3.03;;
13927;SDS011;7036;50.834;4.718;2022-11-15T03:39:37;3.90;;;3.00;;
13927;SDS011;7036;50.834;4.718;2022-11-15T03:42:12;2.80;;;2.60;;
13927;SDS011;7036;50.834;4.718;2022-11-15T03:44:50;2.77;;;2.57;;
13927;SDS011;7036;50.834;4.718;2022-11-15T03:47:24;3.20;;;2.90;;
13927;SDS011;7036;50.834;4.718;2022-11-15T03:50:19;3.80;;;2.43;;
13927;SDS011;7036;50.834;4.718;2022-11-15T03:52:25;2.77;;;2.40;;
13927;SDS011;7036;50.834;4.718;2022-11-15T03:54:54;3.05;;;2.75;;
13927;SDS011;7036;50.834;4.718;2022-11-15T03:57:21;2.75;;;2.55;;
13927;SDS011;7036;50.834;4.718;2022-11-15T03:59:49;2.80;;;2.60;;
13927;SDS011;7036;50.834;4.718;2022-11-15T04:02:17;2.88;;;2.53;;
13927;SDS011;7036;50.834;4.718;2022-11-15T04:04:44;2.97;;;2.72;;
13927;SDS011;7036;50.834;4.718;2022-11-15T04:07:11;3.45;;;2.70;;
13927;SDS011;7036;50.834;4.718;2022-11-15T04:09:39;2.85;;;2.65;;
13927;SDS011;7036;50.834;4.718;2022-11-15T04:12:24;3.17;;;2.40;;
13927;SDS011;7036;50.834;4.718;2022-11-15T04:15:20;3.17;;;2.77;;
13927;SDS011;7036;50.834;4.718;2022-11-15T04:17:36;2.43;;;2.17;;
13927;SDS011;7036;50.834;4.718;2022-11-15T04:20:10;2.47;;;2.27;;
13927;SDS011;7036;50.834;4.718;2022-11-15T04:22:57;3.93;;;2.57;;
13927;SDS011;7036;50.834;4.718;2022-11-15T04:25:41;2.60;;;2.40;;
13927;SDS011;7036;50.834;4.718;2022-11-15T04:28:10;2.72;;;2.53;;
13927;SDS011;7036;50.834;4.718;2022-11-15T04:30:37;2.47;;;2.28;;
13927;SDS011;7036;50.834;4.718;2022-11-15T04:33:04;2.35;;;2.15;;
13927;SDS011;7036;50.834;4.718;2022-11-15T04:35:32;2.65;;;2.45;;
13927;SDS011;7036;50.834;4.718;2022-11-15T04:37:59;2.47;;;2.28;;
13927;SDS011;7036;50.834;4.718;2022-11-15T04:40:26;2.85;;;2.45;;
13927;SDS011;7036;50.834;4.718;2022-11-15T04:42:54;2.67;;;2.45;;
13927;SDS011;7036;50.834;4.718;2022-11-15T04:45:23;3.70;;;2.65;;
13927;SDS011;7036;50.834;4.718;2022-11-15T04:47:49;3.93;;;2.57;;
13927;SDS011;7036;50.834;4.718;2022-11-15T04:50:17;2.20;;;2.00;;
13927;SDS011;7036;50.834;4.718;2022-11-15T04:52:52;2.78;;;2.30;;
13927;SDS011;7036;50.834;4.718;2022-11-15T04:55:18;3.27;;;2.77;;
13927;SDS011;7036;50.834;4.718;2022-11-15T04:57:45;2.38;;;2.15;;
13927;SDS011;7036;50.834;4.718;2022-11-15T05:00:14;3.35;;;2.10;;
13927;SDS011;7036;50.834;4.718;2022-11-15T05:02:42;2.70;;;2.50;;
13927;SDS011;7036;50.834;4.718;2022-11-15T05:05:27;2.33;;;2.13;;
13927;SDS011;7036;50.834;4.718;2022-11-15T05:07:55;2.47;;;2.28;;
13927;SDS011;7036;50.834;4.718;2022-11-15T05:10:22;2.40;;;2.20;;
13927;SDS011;7036;50.834;4.718;2022-11-15T05:12:50;2.40;;;2.20;;
13927;SDS011;7036;50.834;4.718;2022-11-15T05:15:17;4.13;;;2.10;;
13927;SDS011;7036;50.834;4.718;2022-11-15T05:17:45;2.63;;;2.42;;
13927;SDS011;7036;50.834;4.718;2022-11-15T05:20:13;2.50;;;2.25;;
13927;SDS011;7036;50.834;4.718;2022-11-15T05:22:41;2.58;;;2.38;;
13927;SDS011;7036;50.834;4.718;2022-11-15T05:25:09;2.45;;;2.25;;
13927;SDS011;7036;50.834;4.718;2022-11-15T05:27:37;2.40;;;2.20;;
13927;SDS011;7036;50.834;4.718;2022-11-15T05:30:05;2.65;;;2.13;;
13927;SDS011;7036;50.834;4.718;2022-11-15T05:32:33;2.77;;;2.50;;
13927;SDS011;7036;50.834;4.718;2022-11-15T05:35:01;2.53;;;2.17;;
13927;SDS011;7036;50.834;4.718;2022-11-15T05:37:28;2.73;;;2.53;;
13927;SDS011;7036;50.834;4.718;2022-11-15T05:39:55;2.45;;;2.20;;
13927;SDS011;7036;50.834;4.718;2022-11-15T05:42:23;2.30;;;2.10;;
13927;SDS011;7036;50.834;4.718;2022-11-15T05:44:51;2.20;;;2.00;;
13927;SDS011;7036;50.834;4.718;2022-11-15T05:47:20;2.40;;;2.20;;
13927;SDS011;7036;50.834;4.718;2022-11-15T05:49:46;2.88;;;2.53;;
13927;SDS011;7036;50.834;4.718;2022-11-15T05:52:15;2.33;;;2.13;;
13927;SDS011;7036;50.834;4.718;2022-11-15T05:54:42;2.60;;;2.40;;
13927;SDS011;7036;50.834;4.718;2022-11-15T05:57:10;3.63;;;2.30;;
13927;SDS011;7036;50.834;4.718;2022-11-15T05:59:38;2.40;;;2.20;;
13927;SDS011;7036;50.834;4.718;2022-11-15T06:02:06;2.88;;;2.30;;
13927;SDS011;7036;50.834;4.718;2022-11-15T06:04:34;2.72;;;2.28;;
13927;SDS011;7036;50.834;4.718;2022-11-15T06:07:02;2.40;;;2.10;;
13927;SDS011;7036;50.834;4.718;2022-11-15T06:09:29;2.50;;;2.20;;
13927;SDS011;7036;50.834;4.718;2022-11-15T06:11:58;2.83;;;2.55;;
13927;SDS011;7036;50.834;4.718;2022-11-15T06:14:24;2.27;;;1.90;;
13927;SDS011;7036;50.834;4.718;2022-11-15T06:16:52;2.15;;;1.95;;
13927;SDS011;7036;50.834;4.718;2022-11-15T06:19:21;2.10;;;1.90;;
13927;SDS011;7036;50.834;4.718;2022-11-15T06:21:47;1.67;;;1.40;;
13927;SDS011;7036;50.834;4.718;2022-11-15T06:24:15;2.33;;;2.13;;
13927;SDS011;7036;50.834;4.718;2022-11-15T06:26:43;2.15;;;1.77;;
13927;SDS011;7036;50.834;4.718;2022-11-15T06:29:11;3.80;;;1.95;;
13927;SDS011;7036;50.834;4.718;2022-11-15T06:31:39;2.42;;;1.77;;
13927;SDS011;7036;50.834;4.718;2022-11-15T06:34:07;1.80;;;1.55;;
13927;SDS011;7036;50.834;4.718;2022-11-15T06:36:35;3.03;;;2.20;;
13927;SDS011;7036;50.834;4.718;2022-11-15T06:39:03;2.45;;;1.83;;
13927;SDS011;7036;50.834;4.718;2022-11-15T06:41:33;5.50;;;2.00;;
13927;SDS011;7036;50.834;4.718;2022-11-15T06:44:01;2.70;;;1.67;;
13927;SDS011;7036;50.834;4.718;2022-11-15T06:46:29;3.42;;;1.90;;
13927;SDS011;7036;50.834;4.718;2022-11-15T06:48:58;4.40;;;2.10;;
13927;SDS011;7036;50.834;4.718;2022-11-15T06:51:24;2.37;;;1.90;;
13927;SDS011;7036;50.834;4.718;2022-11-15T06:53:52;2.20;;;1.90;;
13927;SDS011;7036;50.834;4.718;2022-11-15T06:56:20;3.92;;;2.08;;
13927;SDS011;7036;50.834;4.718;2022-11-15T06:58:48;2.20;;;1.48;;
13927;SDS011;7036;50.834;4.718;2022-11-15T07:01:16;2.03;;;1.60;;
13927;SDS011;7036;50.834;4.718;2022-11-15T07:03:44;2.08;;;1.80;;
13927;SDS011;7036;50.834;4.718;2022-11-15T07:06:13;2.28;;;1.60;;
13927;SDS011;7036;50.834;4.718;2022-11-15T07:08:39;3.47;;;1.80;;
13927;SDS011;7036;50.834;4.718;2022-11-15T07:11:07;2.42;;;2.08;;
13927;SDS011;7036;50.834;4.718;2022-11-15T07:13:35;2.42;;;2.08;;
13927;SDS011;7036;50.834;4.718;2022-11-15T07:16:05;2.67;;;1.80;;
13927;SDS011;7036;50.834;4.718;2022-11-15T07:18:30;3.72;;;1.63;;
13927;SDS011;7036;50.834;4.718;2022-11-15T07:21:03;3.92;;;1.85;;
13927;SDS011;7036;50.834;4.718;2022-11-15T07:23:28;2.63;;;1.60;;
13927;SDS011;7036;50.834;4.718;2022-11-15T07:25:56;4.57;;;1.67;;
13927;SDS011;7036;50.834;4.718;2022-11-15T07:28:26;2.80;;;1.75;;
13927;SDS011;7036;50.834;4.718;2022-11-15T07:30:52;1.60;;;1.50;;
13927;SDS011;7036;50.834;4.718;2022-11-15T07:33:22;2.45;;;1.77;;
13927;SDS011;7036;50.834;4.718;2022-11-15T07:35:48;3.07;;;1.63;;
13927;SDS011;7036;50.834;4.718;2022-11-15T07:38:16;3.17;;;1.73;;
13927;SDS011;7036;50.834;4.718;2022-11-15T07:40:45;3.67;;;1.73;;
13927;SDS011;7036;50.834;4.718;2022-11-15T07:43:13;2.35;;;1.98;;
13927;SDS011;7036;50.834;4.718;2022-11-15T07:45:45;2.42;;;1.98;;
13927;SDS011;7036;50.834;4.718;2022-11-15T07:48:11;4.17;;;2.10;;
13927;SDS011;7036;50.834;4.718;2022-11-15T07:50:41;2.47;;;1.83;;
13927;SDS011;7036;50.834;4.718;2022-11-15T07:53:08;1.97;;;1.73;;
13927;SDS011;7036;50.834;4.718;2022-11-15T07:55:36;3.35;;;1.80;;
13927;SDS011;7036;50.834;4.718;2022-11-15T07:58:05;6.00;;;1.85;;
13927;SDS011;7036;50.834;4.718;2022-11-15T08:00:32;9.18;;;1.70;;
13927;SDS011;7036;50.834;4.718;2022-11-15T08:03:04;3.35;;;1.50;;
13927;SDS011;7036;50.834;4.718;2022-11-15T08:05:32;1.90;;;1.30;;
13927;SDS011;7036;50.834;4.718;2022-11-15T08:07:59;3.75;;;1.70;;
13927;SDS011;7036;50.834;4.718;2022-11-15T08:10:27;2.15;;;1.70;;
13927;SDS011;7036;50.834;4.718;2022-11-15T08:13:00;7.53;;;2.20;;
13927;SDS011;7036;50.834;4.718;2022-11-15T08:15:25;7.50;;;2.50;;
13927;SDS011;7036;50.834;4.718;2022-11-15T08:17:55;3.40;;;1.77;;
13927;SDS011;7036;50.834;4.718;2022-11-15T08:20:21;4.67;;;2.20;;
13927;SDS011;7036;50.834;4.718;2022-11-15T08:22:49;6.00;;;2.13;;
13927;SDS011;7036;50.834;4.718;2022-11-15T08:25:17;8.65;;;2.05;;
13927;SDS011;7036;50.834;4.718;2022-11-15T08:27:44;4.75;;;2.28;;
13927;SDS011;7036;50.834;4.718;2022-11-15T08:30:12;5.13;;;2.35;;
13927;SDS011;7036;50.834;4.718;2022-11-15T08:32:40;9.68;;;2.47;;
13927;SDS011;7036;50.834;4.718;2022-11-15T08:35:08;6.90;;;1.98;;
13927;SDS011;7036;50.834;4.718;2022-11-15T08:37:36;7.45;;;2.72;;
13927;SDS011;7036;50.834;4.718;2022-11-15T08:40:10;3.65;;;2.13;;
13927;SDS011;7036;50.834;4.718;2022-11-15T08:42:38;3.40;;;2.13;;
13927;SDS011;7036;50.834;4.718;2022-11-15T08:45:08;3.33;;;1.83;;
13927;SDS011;7036;50.834;4.718;2022-11-15T08:47:35;7.97;;;2.13;;
13927;SDS011;7036;50.834;4.718;2022-11-15T08:50:03;6.35;;;2.28;;
13927;SDS011;7036;50.834;4.718;2022-11-15T08:52:31;6.20;;;2.00;;
13927;SDS011;7036;50.834;4.718;2022-11-15T08:54:57;20.60;;;3.33;;
13927;SDS011;7036;50.834;4.718;2022-11-15T08:57:24;17.42;;;3.90;;
13927;SDS011;7036;50.834;4.718;2022-11-15T08:59:51;21.40;;;3.35;;
13927;SDS011;7036;50.834;4.718;2022-11-15T09:02:19;10.77;;;2.92;;
13927;SDS011;7036;50.834;4.718;2022-11-15T09:04:46;18.15;;;3.72;;
13927;SDS011;7036;50.834;4.718;2022-11-15T09:07:13;26.73;;;3.92;;
13927;SDS011;7036;50.834;4.718;2022-11-15T09:09:40;10.65;;;2.58;;
13927;SDS011;7036;50.834;4.718;2022-11-15T09:12:08;13.73;;;2.78;;
13927;SDS011;7036;50.834;4.718;2022-11-15T09:14:35;11.30;;;3.55;;
13927;SDS011;7036;50.834;4.718;2022-11-15T09:17:02;8.23;;;2.53;;
13927;SDS011;7036;50.834;4.718;2022-11-15T09:19:30;14.48;;;2.80;;
13927;SDS011;7036;50.834;4.718;2022-11-15T09:21:58;18.27;;;3.27;;
13927;SDS011;7036;50.834;4.718;2022-11-15T09:24:24;14.97;;;3.23;;
13927;SDS011;7036;50.834;4.718;2022-11-15T09:26:52;11.65;;;2.70;;
13927;SDS011;7036;50.834;4.718;2022-11-15T09:29:19;15.88;;;3.38;;
13927;SDS011;7036;50.834;4.718;2022-11-15T09:31:47;9.52;;;3.08;;
13927;SDS011;7036;50.834;4.718;2022-11-15T09:34:15;17.83;;;3.45;;
13927;SDS011;7036;50.834;4.718;2022-11-15T09:36:44;8.73;;;2.55;;
13927;SDS011;7036;50.834;4.718;2022-11-15T09:39:10;13.90;;;3.33;;
13927;SDS011;7036;50.834;4.718;2022-11-15T09:46:58;14.45;;;2.67;;
13927;SDS011;7036;50.834;4.718;2022-11-15T09:49:20;13.00;;;2.67;;
13927;SDS011;7036;50.834;4.718;2022-11-15T09:51:52;7.63;;;2.70;;
13927;SDS011;7036;50.834;4.718;2022-11-15T09:54:23;10.00;;;3.00;;
13927;SDS011;7036;50.834;4.718;2022-11-15T09:56:50;14.97;;;3.50;;
13927;SDS011;7036;50.834;4.718;2022-11-15T10:04:39;6.67;;;2.43;;
13927;SDS011;7036;50.834;4.718;2022-11-15T10:07:21;9.20;;;2.13;;
13927;SDS011;7036;50.834;4.718;2022-11-15T10:09:47;6.20;;;2.60;;
13927;SDS011;7036;50.834;4.718;2022-11-15T10:12:32;6.80;;;2.47;;
13927;SDS011;7036;50.834;4.718;2022-11-15T10:15:02;6.70;;;2.70;;
13927;SDS011;7036;50.834;4.718;2022-11-15T10:20:24;8.37;;;2.13;;
13927;SDS011;7036;50.834;4.718;2022-11-15T10:22:51;4.90;;;2.10;;
13927;SDS011;7036;50.834;4.718;2022-11-15T10:25:19;8.23;;;2.77;;
13927;SDS011;7036;50.834;4.718;2022-11-15T10:27:47;7.53;;;1.90;;
13927;SDS011;7036;50.834;4.718;2022-11-15T10:30:13;5.25;;;1.80;;
13927;SDS011;7036;50.834;4.718;2022-11-15T10:32:39;4.75;;;2.17;;
13927;SDS011;7036;50.834;4.718;2022-11-15T10:37:50;5.83;;;1.47;;
13927;SDS011;7036;50.834;4.718;2022-11-15T10:40:21;6.57;;;2.05;;
13927;SDS011;7036;50.834;4.718;2022-11-15T10:42:46;9.17;;;1.83;;
13927;SDS011;7036;50.834;4.718;2022-11-15T10:45:29;6.90;;;2.10;;
13927;SDS011;7036;50.834;4.718;2022-11-15T10:47:53;5.87;;;2.10;;
13927;SDS011;7036;50.834;4.718;2022-11-15T10:50:28;2.78;;;1.90;;
13927;SDS011;7036;50.834;4.718;2022-11-15T10:52:54;6.50;;;2.17;;
13927;SDS011;7036;50.834;4.718;2022-11-15T10:55:23;4.18;;;1.75;;
13927;SDS011;7036;50.834;4.718;2022-11-15T10:57:54;6.25;;;1.60;;
13927;SDS011;7036;50.834;4.718;2022-11-15T11:05:38;3.93;;;1.60;;
13927;SDS011;7036;50.834;4.718;2022-11-15T11:10:37;13.93;;;1.70;;
13927;SDS011;7036;50.834;4.718;2022-11-15T11:13:39;4.95;;;1.75;;
13927;SDS011;7036;50.834;4.718;2022-11-15T11:15:42;4.20;;;1.77;;
13927;SDS011;7036;50.834;4.718;2022-11-15T11:18:10;4.93;;;1.67;;
13927;SDS011;7036;50.834;4.718;2022-11-15T11:20:45;6.28;;;1.90;;
13927;SDS011;7036;50.834;4.718;2022-11-15T11:36:21;3.13;;;1.53;;
13927;SDS011;7036;50.834;4.718;2022-11-15T11:38:51;3.57;;;1.97;;
13927;SDS011;7036;50.834;4.718;2022-11-15T11:46:59;7.10;;;2.87;;
13927;SDS011;7036;50.834;4.718;2022-11-15T11:52:24;7.57;;;3.57;;
13927;SDS011;7036;50.834;4.718;2022-11-15T11:55:14;7.50;;;3.30;;
13927;SDS011;7036;50.834;4.718;2022-11-15T12:06:31;11.07;;;4.60;;
13927;SDS011;7036;50.834;4.718;2022-11-15T12:11:45;11.70;;;5.20;;
13927;SDS011;7036;50.834;4.718;2022-11-15T12:14:35;11.43;;;4.30;;
13927;SDS011;7036;50.834;4.718;2022-11-15T12:16:59;8.17;;;3.60;;
13927;SDS011;7036;50.834;4.718;2022-11-15T12:19:28;6.65;;;4.18;;
13927;SDS011;7036;50.834;4.718;2022-11-15T12:22:00;9.38;;;4.18;;
13927;SDS011;7036;50.834;4.718;2022-11-15T12:24:26;8.00;;;4.07;;
13927;SDS011;7036;50.834;4.718;2022-11-15T12:26:54;11.90;;;4.30;;
13927;SDS011;7036;50.834;4.718;2022-11-15T12:29:25;15.80;;;4.60;;
13927;SDS011;7036;50.834;4.718;2022-11-15T12:31:52;9.03;;;3.70;;
13927;SDS011;7036;50.834;4.718;2022-11-15T12:36:49;9.40;;;3.83;;
13927;SDS011;7036;50.834;4.718;2022-11-15T12:39:17;9.48;;;3.80;;
13927;SDS011;7036;50.834;4.718;2022-11-15T12:45:03;25.03;;;5.80;;
13927;SDS011;7036;50.834;4.718;2022-11-15T12:59:51;10.80;;;3.77;;
13927;SDS011;7036;50.834;4.718;2022-11-15T13:02:40;10.33;;;3.17;;
13927;SDS011;7036;50.834;4.718;2022-11-15T13:17:49;7.15;;;2.65;;
13927;SDS011;7036;50.834;4.718;2022-11-15T13:27:52;4.70;;;2.75;;
13927;SDS011;7036;50.834;4.718;2022-11-15T13:30:21;6.15;;;2.53;;
13927;SDS011;7036;50.834;4.718;2022-11-15T13:32:48;5.88;;;2.42;;
13927;SDS011;7036;50.834;4.718;2022-11-15T13:35:36;9.23;;;2.88;;
13927;SDS011;7036;50.834;4.718;2022-11-15T13:37:46;6.53;;;2.90;;
13927;SDS011;7036;50.834;4.718;2022-11-15T13:40:19;5.95;;;2.20;;
13927;SDS011;7036;50.834;4.718;2022-11-15T13:42:53;5.10;;;2.50;;
13927;SDS011;7036;50.834;4.718;2022-11-15T13:45:19;5.40;;;2.60;;
13927;SDS011;7036;50.834;4.718;2022-11-15T13:47:51;7.15;;;2.50;;
13927;SDS011;7036;50.834;4.718;2022-11-15T13:50:17;4.17;;;1.83;;
13927;SDS011;7036;50.834;4.718;2022-11-15T13:52:45;4.07;;;1.98;;
13927;SDS011;7036;50.834;4.718;2022-11-15T13:55:14;5.72;;;2.13;;
13927;SDS011;7036;50.834;4.718;2022-11-15T13:57:48;7.28;;;2.20;;
13927;SDS011;7036;50.834;4.718;2022-11-15T14:02:53;3.23;;;2.00;;
13927;SDS011;7036;50.834;4.718;2022-11-15T14:05:21;5.28;;;2.17;;
13927;SDS011;7036;50.834;4.718;2022-11-15T14:10:27;5.03;;;2.27;;
13927;SDS011;7036;50.834;4.718;2022-11-15T14:12:53;7.00;;;2.20;;
13927;SDS011;7036;50.834;4.718;2022-11-15T14:15:32;4.45;;;1.85;;
13927;SDS011;7036;50.834;4.718;2022-11-15T14:17:57;2.67;;;1.83;;
13927;SDS011;7036;50.834;4.718;2022-11-15T14:22:55;7.32;;;1.88;;
13927;SDS011;7036;50.834;4.718;2022-11-15T14:25:22;3.60;;;1.83;;
13927;SDS011;7036;50.834;4.718;2022-11-15T14:30:57;6.50;;;2.37;;
13927;SDS011;7036;50.834;4.718;2022-11-15T14:33:20;4.93;;;1.83;;
13927;SDS011;7036;50.834;4.718;2022-11-15T14:35:48;2.83;;;1.87;;
13927;SDS011;7036;50.834;4.718;2022-11-15T14:38:15;4.25;;;1.95;;
13927;SDS011;7036;50.834;4.718;2022-11-15T14:40:43;8.38;;;1.88;;
13927;SDS011;7036;50.834;4.718;2022-11-15T14:43:11;2.72;;;1.50;;
13927;SDS011;7036;50.834;4.718;2022-11-15T14:45:39;2.95;;;1.73;;
13927;SDS011;7036;50.834;4.718;2022-11-15T14:48:07;3.97;;;2.28;;
13927;SDS011;7036;50.834;4.718;2022-11-15T14:50:34;3.90;;;1.77;;
13927;SDS011;7036;50.834;4.718;2022-11-15T14:53:02;6.53;;;2.40;;
13927;SDS011;7036;50.834;4.718;2022-11-15T14:55:30;10.77;;;2.35;;
13927;SDS011;7036;50.834;4.718;2022-11-15T14:57:57;4.53;;;2.05;;
13927;SDS011;7036;50.834;4.718;2022-11-15T15:00:25;5.88;;;2.30;;
13927;SDS011;7036;50.834;4.718;2022-11-15T15:02:53;8.80;;;2.38;;
13927;SDS011;7036;50.834;4.718;2022-11-15T15:05:23;9.05;;;1.92;;
13927;SDS011;7036;50.834;4.718;2022-11-15T15:07:48;8.50;;;2.73;;
13927;SDS011;7036;50.834;4.718;2022-11-15T15:10:17;7.20;;;1.83;;
13927;SDS011;7036;50.834;4.718;2022-11-15T15:12:44;2.90;;;1.70;;
13927;SDS011;7036;50.834;4.718;2022-11-15T15:15:15;5.57;;;1.95;;
13927;SDS011;7036;50.834;4.718;2022-11-15T15:17:40;7.63;;;2.23;;
13927;SDS011;7036;50.834;4.718;2022-11-15T15:20:09;3.65;;;1.52;;
13927;SDS011;7036;50.834;4.718;2022-11-15T15:22:36;9.23;;;2.20;;
13927;SDS011;7036;50.834;4.718;2022-11-15T15:25:14;6.50;;;1.65;;
13927;SDS011;7036;50.834;4.718;2022-11-15T15:27:36;4.53;;;1.60;;
13927;SDS011;7036;50.834;4.718;2022-11-15T15:30:03;6.95;;;2.28;;
13927;SDS011;7036;50.834;4.718;2022-11-15T15:32:30;4.72;;;1.85;;
13927;SDS011;7036;50.834;4.718;2022-11-15T15:34:57;8.07;;;1.83;;
13927;SDS011;7036;50.834;4.718;2022-11-15T15:37:25;3.83;;;1.63;;
13927;SDS011;7036;50.834;4.718;2022-11-15T15:39:53;2.80;;;1.92;;
13927;SDS011;7036;50.834;4.718;2022-11-15T15:42:22;2.17;;;1.60;;
13927;SDS011;7036;50.834;4.718;2022-11-15T15:44:49;5.70;;;1.65;;
13927;SDS011;7036;50.834;4.718;2022-11-15T15:47:18;4.00;;;1.70;;
13927;SDS011;7036;50.834;4.718;2022-11-15T15:49:46;2.13;;;1.40;;
13927;SDS011;7036;50.834;4.718;2022-11-15T15:52:14;4.68;;;2.00;;
13927;SDS011;7036;50.834;4.718;2022-11-15T15:54:41;5.28;;;1.85;;
13927;SDS011;7036;50.834;4.718;2022-11-15T15:57:08;4.53;;;1.80;;
13927;SDS011;7036;50.834;4.718;2022-11-15T15:59:35;3.85;;;1.48;;
13927;SDS011;7036;50.834;4.718;2022-11-15T16:02:05;4.00;;;1.73;;
13927;SDS011;7036;50.834;4.718;2022-11-15T16:04:31;4.90;;;1.88;;
13927;SDS011;7036;50.834;4.718;2022-11-15T16:06:59;2.30;;;1.48;;
13927;SDS011;7036;50.834;4.718;2022-11-15T16:09:26;3.03;;;1.63;;
13927;SDS011;7036;50.834;4.718;2022-11-15T16:12:12;8.00;;;2.00;;
13927;SDS011;7036;50.834;4.718;2022-11-15T16:14:40;3.10;;;1.50;;
13927;SDS011;7036;50.834;4.718;2022-11-15T16:17:18;2.92;;;1.33;;
13927;SDS011;7036;50.834;4.718;2022-11-15T16:19:40;3.33;;;1.97;;
13927;SDS011;7036;50.834;4.718;2022-11-15T16:22:08;3.30;;;1.65;;
13927;SDS011;7036;50.834;4.718;2022-11-15T16:24:36;3.30;;;1.50;;
13927;SDS011;7036;50.834;4.718;2022-11-15T16:27:03;1.92;;;1.40;;
13927;SDS011;7036;50.834;4.718;2022-11-15T16:29:31;1.50;;;1.40;;
13927;SDS011;7036;50.834;4.718;2022-11-15T16:31:59;4.32;;;1.63;;
13927;SDS011;7036;50.834;4.718;2022-11-15T16:34:26;5.25;;;1.70;;
13927;SDS011;7036;50.834;4.718;2022-11-15T16:36:54;3.85;;;1.40;;
13927;SDS011;7036;50.834;4.718;2022-11-15T16:39:22;3.03;;;1.40;;
13927;SDS011;7036;50.834;4.718;2022-11-15T16:41:50;4.15;;;1.58;;
13927;SDS011;7036;50.834;4.718;2022-11-15T16:44:18;2.40;;;1.52;;
13927;SDS011;7036;50.834;4.718;2022-11-15T16:46:48;6.80;;;2.03;;
13927;SDS011;7036;50.834;4.718;2022-11-15T16:49:14;3.80;;;1.40;;
13927;SDS011;7036;50.834;4.718;2022-11-15T16:51:45;4.75;;;1.70;;
13927;SDS011;7036;50.834;4.718;2022-11-15T16:54:15;2.77;;;1.07;;
13927;SDS011;7036;50.834;4.718;2022-11-15T16:56:44;3.25;;;1.42;;
13927;SDS011;7036;50.834;4.718;2022-11-15T16:59:14;2.80;;;1.43;;
13927;SDS011;7036;50.834;4.718;2022-11-15T17:01:41;4.47;;;1.43;;
13927;SDS011;7036;50.834;4.718;2022-11-15T17:04:08;9.85;;;1.92;;
13927;SDS011;7036;50.834;4.718;2022-11-15T17:06:41;2.60;;;1.40;;
13927;SDS011;7036;50.834;4.718;2022-11-15T17:09:25;1.90;;;1.40;;
13927;SDS011;7036;50.834;4.718;2022-11-15T17:11:43;3.10;;;1.43;;
13927;SDS011;7036;50.834;4.718;2022-11-15T17:14:10;2.27;;;1.37;;
13927;SDS011;7036;50.834;4.718;2022-11-15T17:16:38;2.92;;;1.75;;